createdAt,value
2019-04-21T00:02:01.572Z,20.03
2019-04-21T00:04:42.989Z,23.20
2019-04-21T00:07:22.525Z,20.70
2019-04-21T00:09:53.415Z,26.03
2019-04-21T00:12:18.066Z,22.70
2019-04-21T00:14:43.579Z,23.47
2019-04-21T00:17:07.853Z,22.40
2019-04-21T00:19:39.541Z,22.65
2019-04-21T00:22:19.130Z,26.67
2019-04-21T00:24:50.738Z,24.63
2019-04-21T00:27:26.601Z,25.90
2019-04-21T00:30:01.772Z,24.77
2019-04-21T00:32:25.434Z,26.10
2019-04-21T00:34:50.306Z,27.07
2019-04-21T00:37:20.734Z,27.10
2019-04-21T00:40:06.393Z,26.63
2019-04-21T00:42:29.096Z,27.30
2019-04-21T00:44:58.952Z,25.40
2019-04-21T00:47:34.048Z,26.65
2019-04-21T00:50:08.118Z,26.97
2019-04-21T00:55:21.796Z,26.77
2019-04-21T00:57:44.948Z,26.07
2019-04-21T01:00:11.818Z,26.50
2019-04-21T01:02:47.250Z,26.00
2019-04-21T01:05:18.261Z,26.27
2019-04-21T01:07:42.457Z,24.40
2019-04-21T01:10:06.549Z,25.60
2019-04-21T01:12:41.794Z,27.30
2019-04-21T01:15:22.706Z,27.10
2019-04-21T01:17:47.841Z,25.12
2019-04-21T01:20:06.504Z,25.07
2019-04-21T01:22:24.333Z,27.87
2019-04-21T01:25:00.041Z,25.73
2019-04-21T01:27:46.595Z,26.00
2019-04-21T01:30:19.245Z,26.17
2019-04-21T01:32:51.251Z,26.00
2019-04-21T01:35:16.539Z,26.70
2019-04-21T01:37:52.783Z,26.87
2019-04-21T01:40:25.663Z,25.90
2019-04-21T01:42:48.416Z,26.93
2019-04-21T01:45:18.895Z,28.70
2019-04-21T01:47:46.433Z,28.90
2019-04-21T01:50:07.081Z,27.67
2019-04-21T01:57:59.364Z,28.33
2019-04-21T02:00:45.147Z,29.70
2019-04-21T02:03:34.451Z,28.80
2019-04-21T02:05:54.485Z,27.60
2019-04-21T02:08:20.109Z,26.83
2019-04-21T02:10:57.154Z,28.90
2019-04-21T02:13:17.119Z,29.17
2019-04-21T02:15:59.404Z,27.87
2019-04-21T02:18:25.545Z,28.80
2019-04-21T02:20:41.197Z,28.33
2019-04-21T02:25:57.449Z,28.83
2019-04-21T02:28:29.800Z,27.50
2019-04-21T02:31:18.620Z,27.27
2019-04-21T02:33:50.705Z,29.35
2019-04-21T02:38:44.880Z,29.82
2019-04-21T02:41:28.348Z,30.20
2019-04-21T02:43:38.412Z,30.20
2019-04-21T02:48:46.951Z,30.20
2019-04-21T02:51:15.259Z,30.07
2019-04-21T02:56:11.202Z,29.57
2019-04-21T02:58:52.338Z,30.23
2019-04-21T03:01:31.272Z,31.30
2019-04-21T03:04:00.654Z,32.07
2019-04-21T03:09:29.612Z,29.60
2019-04-21T03:11:56.406Z,29.40
2019-04-21T03:16:47.229Z,28.73
2019-04-21T03:19:28.492Z,30.90
2019-04-21T03:21:59.277Z,29.93
2019-04-21T03:24:32.905Z,29.50
2019-04-21T03:27:10.399Z,30.08
2019-04-21T03:29:28.453Z,32.00
2019-04-21T03:39:30.913Z,30.40
2019-04-21T03:52:03.793Z,34.20
2019-04-21T03:54:39.096Z,35.70
2019-04-21T03:59:36.800Z,30.00
2019-04-21T04:02:28.652Z,31.27
2019-04-21T04:04:49.598Z,31.20
2019-04-21T04:10:07.785Z,30.67
2019-04-21T04:15:03.081Z,32.03
2019-04-21T04:17:32.598Z,31.23
2019-04-21T04:20:09.147Z,31.03
2019-04-21T04:22:39.345Z,31.52
2019-04-21T04:25:14.410Z,31.67
2019-04-21T04:27:59.924Z,31.57
2019-04-21T04:30:12.397Z,29.40
2019-04-21T04:37:51.061Z,31.87
2019-04-21T04:42:56.331Z,32.20
2019-04-21T04:47:49.904Z,32.50
2019-04-21T04:50:22.652Z,32.30
2019-04-21T05:05:43.978Z,30.20
2019-04-21T05:08:00.226Z,29.20
2019-04-21T05:12:53.189Z,29.43
2019-04-21T05:15:25.342Z,28.73
2019-04-21T05:17:57.697Z,28.20
2019-04-21T05:22:53.274Z,25.40
2019-04-21T05:25:18.553Z,25.63
2019-04-21T05:27:47.220Z,24.40
2019-04-21T05:33:20.839Z,24.73
2019-04-21T05:35:49.008Z,24.97
2019-04-21T05:38:30.388Z,25.80
2019-04-21T05:40:52.286Z,25.37
2019-04-21T05:43:34.807Z,25.03
2019-04-21T05:46:21.216Z,26.40
2019-04-21T05:48:35.122Z,27.93
2019-04-21T05:51:01.990Z,27.07
2019-04-21T05:53:53.561Z,27.67
2019-04-21T05:56:12.840Z,25.93
2019-04-21T05:58:39.145Z,28.00
2019-04-21T06:01:19.435Z,29.07
2019-04-21T06:03:44.906Z,27.15
2019-04-21T06:06:21.944Z,27.37
2019-04-21T06:08:53.661Z,27.10
2019-04-21T06:11:14.824Z,28.47
2019-04-21T06:13:48.609Z,27.55
2019-04-21T06:16:17.408Z,29.30
2019-04-21T06:18:48.003Z,29.07
2019-04-21T06:21:26.360Z,29.30
2019-04-21T06:23:57.284Z,30.10
2019-04-21T06:26:44.736Z,29.55
2019-04-21T06:28:51.826Z,29.33
2019-04-21T06:31:29.884Z,27.50
2019-04-21T06:36:37.536Z,28.30
2019-04-21T06:44:09.510Z,28.63
2019-04-21T06:46:35.221Z,30.10
2019-04-21T06:49:02.764Z,29.20
2019-04-21T06:51:32.381Z,27.90
2019-04-21T06:59:06.414Z,27.23
2019-04-21T07:01:36.874Z,27.65
2019-04-21T07:04:11.760Z,26.20
2019-04-21T07:06:43.611Z,25.55
2019-04-21T07:09:16.052Z,26.90
2019-04-21T07:11:36.832Z,25.55
2019-04-21T07:16:46.359Z,25.80
2019-04-21T07:19:27.810Z,27.17
2019-04-21T07:21:38.541Z,26.25
2019-04-21T07:24:14.767Z,28.30
2019-04-21T07:26:44.510Z,25.25
2019-04-21T07:29:17.134Z,26.27
2019-04-21T07:31:47.266Z,27.83
2019-04-21T07:34:16.018Z,25.33
2019-04-21T07:36:52.501Z,26.27
2019-04-21T07:39:10.292Z,27.43
2019-04-21T07:41:43.756Z,26.93
2019-04-21T07:44:15.407Z,24.80
2019-04-21T07:46:41.677Z,24.47
2019-04-21T07:49:43.624Z,26.30
2019-04-21T07:52:33.469Z,25.77
2019-04-21T07:55:06.000Z,24.00
2019-04-21T07:57:27.622Z,25.10
2019-04-21T08:00:06.574Z,24.50
2019-04-21T08:02:29.401Z,23.65
2019-04-21T08:05:02.683Z,23.03
2019-04-21T08:07:37.878Z,23.00
2019-04-21T08:09:57.264Z,23.67
2019-04-21T08:12:25.643Z,24.03
2019-04-21T08:15:09.675Z,21.93
2019-04-21T08:17:36.500Z,22.15
2019-04-21T08:20:13.848Z,20.67
2019-04-21T08:25:30.786Z,19.73
2019-04-21T08:28:22.464Z,18.50
2019-04-21T08:30:45.817Z,19.77
2019-04-21T08:33:24.896Z,19.90
2019-04-21T08:36:20.825Z,19.07
2019-04-21T08:38:45.816Z,17.60
2019-04-21T08:41:40.864Z,17.57
2019-04-21T08:43:57.475Z,17.90
2019-04-21T08:46:42.605Z,17.10
2019-04-21T08:49:15.837Z,17.90
2019-04-21T08:52:06.766Z,18.17
2019-04-21T08:54:26.500Z,19.07
2019-04-21T08:57:35.711Z,16.70
2019-04-21T09:00:05.368Z,16.97
2019-04-21T09:02:47.493Z,13.30
2019-04-21T09:05:17.633Z,14.50
2019-04-21T09:07:53.669Z,13.85
2019-04-21T09:10:22.085Z,14.10
2019-04-21T09:12:51.777Z,11.93
2019-04-21T09:15:19.268Z,11.93
2019-04-21T09:17:44.498Z,12.13
2019-04-21T09:20:25.091Z,10.80
2019-04-21T09:22:54.226Z,11.70
2019-04-21T09:25:33.586Z,9.97
2019-04-21T09:27:55.020Z,10.50
2019-04-21T09:30:11.033Z,10.20
2019-04-21T09:32:40.396Z,9.00
2019-04-21T09:35:16.632Z,9.00
2019-04-21T09:37:54.508Z,7.13
2019-04-21T09:40:25.074Z,6.70
2019-04-21T09:42:55.953Z,6.30
2019-04-21T09:45:22.136Z,5.97
2019-04-21T09:48:00.427Z,6.20
2019-04-21T09:50:22.216Z,5.83
2019-04-21T09:52:58.251Z,5.70
2019-04-21T09:55:26.146Z,6.47
2019-04-21T09:58:29.243Z,5.60
2019-04-21T10:01:17.224Z,6.40
2019-04-21T10:03:53.307Z,6.47
2019-04-21T10:06:32.910Z,5.40
2019-04-21T10:09:21.826Z,5.60
2019-04-21T10:12:05.577Z,4.67
2019-04-21T10:14:47.352Z,6.40
2019-04-21T10:17:27.708Z,5.30
2019-04-21T10:19:58.718Z,5.63
2019-04-21T10:22:28.845Z,5.90
2019-04-21T10:24:58.528Z,4.70
2019-04-21T10:27:27.471Z,5.33
2019-04-21T10:29:58.050Z,5.80
2019-04-21T10:32:28.193Z,5.73
2019-04-21T10:34:57.073Z,5.93
2019-04-21T10:37:40.088Z,5.23
2019-04-21T10:39:57.717Z,5.60
2019-04-21T10:42:27.021Z,5.33
2019-04-21T10:44:56.852Z,5.40
2019-04-21T10:47:26.941Z,4.80
2019-04-21T10:49:55.955Z,4.97
2019-04-21T10:52:29.707Z,4.60
2019-04-21T10:55:18.120Z,4.87
2019-04-21T10:57:32.657Z,5.33
2019-04-21T11:00:01.598Z,5.20
2019-04-21T11:02:32.929Z,4.60
2019-04-21T11:05:02.955Z,5.07
2019-04-21T11:08:07.728Z,4.60
2019-04-21T11:10:25.779Z,4.73
2019-04-21T11:12:54.748Z,5.17
2019-04-21T11:15:25.294Z,5.33
2019-04-21T11:17:55.566Z,4.70
2019-04-21T11:20:24.835Z,4.60
2019-04-21T11:22:53.841Z,5.07
2019-04-21T11:25:24.153Z,4.80
2019-04-21T11:27:53.199Z,5.23
2019-04-21T11:30:23.302Z,5.33
2019-04-21T11:32:57.072Z,6.33
2019-04-21T11:35:27.528Z,5.50
2019-04-21T11:38:07.246Z,5.57
2019-04-21T11:40:29.651Z,5.20
2019-04-21T11:42:59.741Z,5.50
2019-04-21T11:45:36.635Z,4.80
2019-04-21T11:48:10.376Z,3.70
2019-04-21T11:50:41.351Z,3.57
2019-04-21T11:53:10.693Z,4.78
2019-04-21T11:55:43.594Z,4.70
2019-04-21T11:58:10.186Z,4.63
2019-04-21T12:00:42.168Z,5.00
2019-04-21T12:03:14.006Z,4.00
2019-04-21T12:05:47.767Z,4.53
2019-04-21T12:08:27.405Z,3.90
2019-04-21T12:10:49.278Z,4.00
2019-04-21T12:13:18.365Z,4.47
2019-04-21T12:15:49.204Z,4.47
2019-04-21T12:18:19.801Z,5.30
2019-04-21T12:20:51.618Z,5.17
2019-04-21T12:23:27.036Z,5.72
2019-04-21T12:25:59.186Z,5.20
2019-04-21T12:28:28.171Z,4.77
2019-04-21T12:30:57.910Z,5.23
2019-04-21T12:33:29.660Z,5.70
2019-04-21T12:35:59.907Z,4.77
2019-04-21T12:38:40.384Z,4.90
2019-04-21T12:41:06.543Z,5.50
2019-04-21T12:43:36.900Z,5.30
2019-04-21T12:46:05.912Z,6.00
2019-04-21T12:48:35.820Z,6.30
2019-04-21T12:51:12.172Z,6.30
2019-04-21T12:53:41.860Z,6.40
2019-04-21T12:56:11.787Z,6.25
2019-04-21T12:58:41.579Z,6.60
2019-04-21T13:01:10.561Z,6.40
2019-04-21T13:03:39.734Z,6.00
2019-04-21T13:06:09.792Z,5.77
2019-04-21T13:08:45.695Z,6.60
2019-04-21T13:11:15.031Z,6.13
2019-04-21T13:13:44.314Z,6.40
2019-04-21T13:16:13.828Z,6.60
2019-04-21T13:18:42.636Z,6.70
2019-04-21T13:21:12.067Z,6.03
2019-04-21T13:23:41.097Z,5.70
2019-04-21T13:26:27.617Z,6.30
2019-04-21T13:28:50.122Z,6.40
2019-04-21T13:31:20.244Z,5.93
2019-04-21T13:33:50.175Z,6.30
2019-04-21T13:36:19.239Z,6.55
2019-04-21T13:39:34.773Z,6.60
2019-04-21T13:41:42.850Z,6.70
2019-04-21T13:44:15.714Z,6.83
2019-04-21T13:46:45.279Z,6.80
2019-04-21T13:49:14.546Z,6.67
2019-04-21T13:51:43.975Z,8.70
2019-04-21T13:54:13.870Z,6.93
2019-04-21T13:56:42.878Z,7.80
2019-04-21T13:59:11.697Z,7.83
2019-04-21T14:01:41.381Z,7.50
2019-04-21T14:04:11.532Z,8.00
2019-04-21T14:06:40.729Z,8.10
2019-04-21T14:09:11.530Z,7.63
2019-04-21T14:11:41.134Z,8.03
2019-04-21T14:14:10.438Z,7.77
2019-04-21T14:16:40.146Z,7.70
2019-04-21T14:19:09.741Z,8.10
2019-04-21T14:21:39.161Z,7.47
2019-04-21T14:24:08.917Z,7.73
2019-04-21T14:26:38.541Z,7.80
2019-04-21T14:29:07.820Z,7.37
2019-04-21T14:31:38.227Z,7.60
2019-04-21T14:34:08.034Z,5.93
2019-04-21T14:36:37.092Z,6.80
2019-04-21T14:39:10.391Z,7.20
2019-04-21T14:41:40.310Z,7.27
2019-04-21T14:44:09.276Z,7.00
2019-04-21T14:46:39.842Z,7.33
2019-04-21T14:49:19.490Z,7.70
2019-04-21T14:51:52.670Z,7.43
2019-04-21T14:54:24.706Z,6.87
2019-04-21T14:56:53.629Z,7.63
2019-04-21T14:59:22.382Z,6.87
2019-04-21T15:01:53.675Z,7.63
2019-04-21T15:04:24.041Z,7.90
2019-04-21T15:06:53.107Z,7.63
2019-04-21T15:09:23.169Z,6.87
2019-04-21T15:11:53.893Z,6.70
2019-04-21T15:14:26.171Z,6.33
2019-04-21T15:16:56.727Z,8.13
2019-04-21T15:19:26.575Z,7.27
2019-04-21T15:21:56.681Z,7.10
2019-04-21T15:24:26.648Z,5.30
2019-04-21T15:26:56.770Z,6.13
2019-04-21T15:29:26.760Z,6.27
2019-04-21T15:31:56.758Z,6.93
2019-04-21T15:34:27.224Z,5.43
2019-04-21T15:36:57.803Z,5.70
2019-04-21T15:39:27.894Z,6.90
2019-04-21T15:41:56.845Z,6.80
2019-04-21T15:44:27.070Z,6.50
2019-04-21T15:46:56.165Z,6.40
2019-04-21T15:49:38.610Z,6.17
2019-04-21T15:51:58.168Z,6.50
2019-04-21T15:54:28.811Z,5.83
2019-04-21T15:57:00.639Z,5.20
2019-04-21T15:59:32.485Z,6.17
2019-04-21T16:02:04.355Z,6.17
2019-04-21T16:04:34.655Z,5.90
2019-04-21T16:07:05.924Z,6.03
2019-04-21T16:09:37.529Z,5.70
2019-04-21T16:12:07.449Z,5.17
2019-04-21T16:14:38.614Z,5.07
2019-04-21T16:17:09.495Z,5.60
2019-04-21T16:19:41.605Z,6.13
2019-04-21T16:22:10.884Z,5.43
2019-04-21T16:24:39.949Z,6.03
2019-04-21T16:27:10.738Z,6.50
2019-04-21T16:29:39.603Z,6.40
2019-04-21T16:32:09.113Z,5.97
2019-04-21T16:34:47.319Z,6.07
2019-04-21T16:37:13.780Z,6.07
2019-04-21T16:39:43.330Z,4.97
2019-04-21T16:42:12.219Z,5.33
2019-04-21T16:44:41.045Z,5.87
2019-04-21T16:47:09.801Z,5.53
2019-04-21T16:49:39.929Z,6.20
2019-04-21T16:52:16.395Z,34.23
2019-04-21T16:54:47.747Z,31.93
2019-04-21T16:57:19.853Z,6.17
2019-04-21T16:59:54.860Z,9.43
2019-04-21T17:02:24.810Z,8.03
2019-04-21T17:04:56.273Z,5.90
2019-04-21T17:07:26.267Z,4.50
2019-04-21T17:09:55.151Z,4.60
2019-04-21T17:12:24.577Z,5.60
2019-04-21T17:15:10.383Z,4.77
2019-04-21T17:17:50.059Z,4.60
2019-04-21T17:20:13.559Z,5.60
2019-04-21T17:22:29.338Z,5.63
2019-04-21T17:24:58.294Z,5.40
2019-04-21T17:27:27.247Z,5.30
2019-04-21T17:29:56.748Z,4.73
2019-04-21T17:32:32.101Z,4.80
2019-04-21T17:34:56.374Z,5.00
2019-04-21T17:37:26.967Z,4.90
2019-04-21T17:39:58.757Z,4.97
2019-04-21T17:42:37.397Z,5.10
2019-04-21T17:45:06.600Z,5.17
2019-04-21T17:47:46.841Z,5.50
2019-04-21T17:50:23.404Z,5.37
2019-04-21T17:53:03.150Z,5.03
2019-04-21T17:55:33.791Z,5.07
2019-04-21T17:58:14.967Z,5.50
2019-04-21T18:01:10.234Z,6.00
2019-04-21T18:03:56.328Z,5.20
2019-04-21T18:05:59.512Z,6.47
2019-04-21T18:08:32.617Z,5.97
2019-04-21T18:10:54.423Z,5.70
2019-04-21T18:13:19.105Z,5.70
2019-04-21T18:15:55.805Z,5.57
2019-04-21T18:18:15.146Z,6.55
2019-04-21T18:21:02.851Z,5.50
2019-04-21T18:23:54.786Z,5.60
2019-04-21T18:26:28.860Z,5.97
2019-04-21T18:28:46.646Z,6.67
2019-04-21T18:31:16.603Z,6.10
2019-04-21T18:33:58.053Z,6.50
2019-04-21T18:36:37.820Z,5.47
2019-04-21T18:39:33.850Z,5.53
2019-04-21T18:42:17.609Z,5.80
2019-04-21T18:45:05.117Z,6.40
2019-04-21T18:47:21.128Z,6.10
2019-04-21T18:49:44.113Z,6.10
2019-04-21T18:52:42.820Z,6.67
2019-04-21T18:55:09.563Z,6.13
2019-04-21T18:57:35.226Z,6.83
2019-04-21T18:59:57.550Z,7.00
2019-04-21T19:02:28.023Z,7.27
2019-04-21T19:05:04.360Z,6.63
2019-04-21T19:07:45.567Z,6.57
2019-04-21T19:13:20.413Z,6.63
2019-04-21T19:15:20.220Z,6.80
2019-04-21T19:20:38.764Z,6.40
2019-04-21T19:23:26.679Z,6.87
2019-04-21T19:26:04.906Z,6.33
2019-04-21T19:28:16.396Z,5.10
2019-04-21T19:30:56.448Z,6.77
2019-04-21T19:33:21.628Z,6.67
2019-04-21T19:35:37.113Z,6.12
2019-04-21T19:38:10.099Z,6.25
2019-04-21T19:40:50.831Z,6.97
2019-04-21T19:43:29.404Z,5.83
2019-04-21T19:45:56.360Z,6.95
2019-04-21T19:48:24.048Z,10.80
2019-04-21T19:50:57.850Z,6.50
2019-04-21T19:53:25.478Z,6.90
2019-04-21T19:55:40.497Z,6.83
2019-04-21T19:58:10.653Z,7.20
2019-04-21T20:00:40.223Z,6.30
2019-04-21T20:03:10.375Z,5.90
2019-04-21T20:05:47.663Z,7.53
2019-04-21T20:08:25.037Z,7.10
2019-04-21T20:10:59.385Z,7.10
2019-04-21T20:13:40.527Z,6.90
2019-04-21T20:16:03.795Z,6.53
2019-04-21T20:18:24.429Z,6.80
2019-04-21T20:20:43.826Z,7.17
2019-04-21T20:23:19.297Z,6.50
2019-04-21T20:25:49.055Z,6.30
2019-04-21T20:28:22.161Z,7.87
2019-04-21T20:31:03.782Z,7.77
2019-04-21T20:33:48.766Z,7.83
2019-04-21T20:36:03.334Z,7.50
2019-04-21T20:38:28.375Z,6.93
2019-04-21T20:40:53.686Z,9.30
2019-04-21T20:43:40.120Z,8.70
2019-04-21T20:46:23.762Z,8.63
2019-04-21T20:48:30.566Z,9.00
2019-04-21T20:51:05.077Z,9.30
2019-04-21T20:53:36.194Z,10.80
2019-04-21T20:56:05.208Z,9.37
2019-04-21T20:58:34.350Z,9.30
2019-04-21T21:03:39.093Z,10.15
2019-04-21T21:06:08.084Z,8.60
2019-04-21T21:08:40.137Z,10.20
2019-04-21T21:11:07.068Z,9.53
2019-04-21T21:13:42.840Z,8.97
2019-04-21T21:16:20.207Z,9.30
2019-04-21T21:21:11.371Z,9.23
2019-04-21T21:23:42.874Z,10.40
2019-04-21T21:26:16.089Z,10.63
2019-04-21T21:28:40.265Z,10.07
2019-04-21T21:31:13.365Z,10.00
2019-04-21T21:33:52.515Z,10.63
2019-04-21T21:36:33.649Z,10.60
2019-04-21T21:38:51.718Z,9.60
2019-04-21T21:41:11.857Z,9.93
2019-04-21T21:43:31.301Z,10.50
2019-04-21T21:46:04.865Z,10.13
2019-04-21T21:48:49.189Z,11.20
2019-04-21T21:51:11.090Z,11.70
2019-04-21T21:53:34.748Z,10.70
2019-04-21T21:56:02.936Z,11.53
2019-04-21T21:58:37.141Z,12.93
2019-04-21T22:01:06.400Z,11.27
2019-04-21T22:03:38.055Z,11.33
2019-04-21T22:06:09.909Z,11.27
2019-04-21T22:08:34.449Z,11.40
2019-04-21T22:11:03.372Z,11.40
2019-04-21T22:13:42.158Z,9.90
2019-04-21T22:16:08.893Z,12.13
2019-04-21T22:18:51.141Z,11.13
2019-04-21T22:21:14.289Z,11.77
2019-04-21T22:23:43.725Z,11.97
2019-04-21T22:26:05.436Z,10.93
2019-04-21T22:28:35.803Z,11.63
2019-04-21T22:31:14.375Z,11.10
2019-04-21T22:33:44.926Z,11.20
2019-04-21T22:36:22.014Z,10.83
2019-04-21T22:38:50.981Z,11.30
2019-04-21T22:41:19.280Z,10.83
2019-04-21T22:43:43.755Z,11.80
2019-04-21T22:46:11.912Z,12.07
2019-04-21T22:48:40.842Z,11.80
2019-04-21T22:51:20.348Z,11.20
2019-04-21T22:53:46.512Z,11.70
2019-04-21T22:56:17.635Z,13.40
2019-04-21T22:58:42.913Z,10.87
2019-04-21T23:01:13.229Z,12.10
2019-04-21T23:03:50.276Z,12.00
2019-04-21T23:06:19.205Z,11.60
2019-04-21T23:08:45.752Z,12.77
2019-04-21T23:11:16.686Z,12.17
2019-04-21T23:13:53.785Z,11.80
2019-04-21T23:16:21.470Z,13.40
2019-04-21T23:19:07.488Z,12.60
2019-04-21T23:21:30.363Z,12.70
2019-04-21T23:24:05.758Z,12.57
2019-04-21T23:26:37.556Z,13.10
2019-04-21T23:29:10.664Z,13.00
2019-04-21T23:31:39.830Z,12.93
2019-04-21T23:33:52.437Z,14.50
2019-04-21T23:36:26.290Z,14.98
2019-04-21T23:38:55.030Z,14.03
2019-04-21T23:41:27.228Z,12.27
2019-04-21T23:44:00.611Z,13.63
2019-04-21T23:46:28.291Z,15.50
2019-04-21T23:49:07.098Z,13.90
2019-04-21T23:51:37.001Z,15.60
2019-04-21T23:53:55.447Z,14.03
2019-04-21T23:56:30.066Z,15.95
2019-04-21T23:59:02.629Z,17.90
